Iruya, Argentina
Current Conditions -  °F | °C
As of 8:00 PM on Wednesday 22 Oct 2014 (Local Time) from SLTJ Reporting Station
Thunderstorm Thunderstorm  
Wind Chill: 64°   Ceiling: 3000
Heat Index: 64°   Visibility: 6mi
Dew Point: 61°   Wind: 5mph
Humidity: 88%   Direction: 180°S
Pressure: 30.15"   Gusts: NA
Location:  22.84°S, 65.23°W
Report Text: SLTJ 222300Z 18004KT 9999 TS BKN030 FEW033CB SCT070 18/16 Q1021
Loading
Personal Weather Stations






























Interactive Weather Map New forecast layout! Learn more

10-Day Weather Forecast

Advertisements
Track Severe Weather on mobile